sensor_id;sensor_type;location;lat;lon;timestamp;temperature;humidity
18658;DHT22;9458;50.942;5.074;2023-05-29T00:00:44;15.80;99.90
18658;DHT22;9458;50.942;5.074;2023-05-29T00:03:21;15.80;99.90
18658;DHT22;9458;50.942;5.074;2023-05-29T00:06:05;15.80;99.90
18658;DHT22;9458;50.942;5.074;2023-05-29T00:08:38;15.70;99.90
18658;DHT22;9458;50.942;5.074;2023-05-29T00:11:14;15.60;99.90
18658;DHT22;9458;50.942;5.074;2023-05-29T00:13:53;15.60;99.90
18658;DHT22;9458;50.942;5.074;2023-05-29T00:16:26;15.50;99.90
18658;DHT22;9458;50.942;5.074;2023-05-29T00:18:57;15.40;99.90
18658;DHT22;9458;50.942;5.074;2023-05-29T00:21:35;15.40;99.90
18658;DHT22;9458;50.942;5.074;2023-05-29T00:24:06;15.40;99.90
18658;DHT22;9458;50.942;5.074;2023-05-29T00:26:43;15.40;99.90
18658;DHT22;9458;50.942;5.074;2023-05-29T00:29:13;15.40;99.90
18658;DHT22;9458;50.942;5.074;2023-05-29T00:31:43;15.40;99.90
18658;DHT22;9458;50.942;5.074;2023-05-29T00:34:16;15.40;99.90
18658;DHT22;9458;50.942;5.074;2023-05-29T00:36:46;15.30;99.90
18658;DHT22;9458;50.942;5.074;2023-05-29T00:39:16;15.30;99.90
18658;DHT22;9458;50.942;5.074;2023-05-29T00:41:53;15.30;99.90
18658;DHT22;9458;50.942;5.074;2023-05-29T00:44:21;15.20;99.90
18658;DHT22;9458;50.942;5.074;2023-05-29T00:46:59;15.10;99.90
18658;DHT22;9458;50.942;5.074;2023-05-29T00:49:29;15.20;99.90
18658;DHT22;9458;50.942;5.074;2023-05-29T00:51:57;15.10;99.90
18658;DHT22;9458;50.942;5.074;2023-05-29T00:54:28;15.00;99.90
18658;DHT22;9458;50.942;5.074;2023-05-29T00:56:56;14.90;99.90
18658;DHT22;9458;50.942;5.074;2023-05-29T00:59:25;14.90;99.90
18658;DHT22;9458;50.942;5.074;2023-05-29T01:01:56;14.90;99.90
18658;DHT22;9458;50.942;5.074;2023-05-29T01:04:33;15.00;99.90
18658;DHT22;9458;50.942;5.074;2023-05-29T01:07:01;14.90;99.90
18658;DHT22;9458;50.942;5.074;2023-05-29T01:09:31;14.90;99.90
18658;DHT22;9458;50.942;5.074;2023-05-29T01:12:01;14.80;99.90
18658;DHT22;9458;50.942;5.074;2023-05-29T01:14:33;14.80;99.90
18658;DHT22;9458;50.942;5.074;2023-05-29T01:17:04;14.80;99.90
18658;DHT22;9458;50.942;5.074;2023-05-29T01:19:40;14.70;99.90
18658;DHT22;9458;50.942;5.074;2023-05-29T01:22:13;14.70;99.90
18658;DHT22;9458;50.942;5.074;2023-05-29T01:24:49;14.70;99.90
18658;DHT22;9458;50.942;5.074;2023-05-29T01:27:19;14.70;99.90
18658;DHT22;9458;50.942;5.074;2023-05-29T01:29:48;14.70;99.90
18658;DHT22;9458;50.942;5.074;2023-05-29T01:32:18;14.60;99.90
18658;DHT22;9458;50.942;5.074;2023-05-29T01:34:47;14.50;99.90
18658;DHT22;9458;50.942;5.074;2023-05-29T01:37:17;14.40;99.90
18658;DHT22;9458;50.942;5.074;2023-05-29T01:39:45;14.40;99.90
18658;DHT22;9458;50.942;5.074;2023-05-29T01:42:12;14.40;99.90
18658;DHT22;9458;50.942;5.074;2023-05-29T01:44:43;14.40;99.90
18658;DHT22;9458;50.942;5.074;2023-05-29T01:47:15;14.40;99.90
18658;DHT22;9458;50.942;5.074;2023-05-29T01:49:44;14.40;99.90
18658;DHT22;9458;50.942;5.074;2023-05-29T01:52:13;14.20;99.90
18658;DHT22;9458;50.942;5.074;2023-05-29T01:54:41;14.10;99.90
18658;DHT22;9458;50.942;5.074;2023-05-29T01:57:08;14.00;99.90
18658;DHT22;9458;50.942;5.074;2023-05-29T01:59:36;14.00;99.90
18658;DHT22;9458;50.942;5.074;2023-05-29T02:02:08;14.00;99.90
18658;DHT22;9458;50.942;5.074;2023-05-29T02:04:36;14.00;99.90
18658;DHT22;9458;50.942;5.074;2023-05-29T02:07:06;14.00;99.90
18658;DHT22;9458;50.942;5.074;2023-05-29T02:09:34;14.00;99.90
18658;DHT22;9458;50.942;5.074;2023-05-29T02:12:01;13.90;99.90
18658;DHT22;9458;50.942;5.074;2023-05-29T02:14:29;13.90;99.90
18658;DHT22;9458;50.942;5.074;2023-05-29T02:17:08;13.70;99.90
18658;DHT22;9458;50.942;5.074;2023-05-29T02:19:35;13.70;99.90
18658;DHT22;9458;50.942;5.074;2023-05-29T02:22:04;13.60;99.90
18658;DHT22;9458;50.942;5.074;2023-05-29T02:24:31;13.60;99.90
18658;DHT22;9458;50.942;5.074;2023-05-29T02:26:58;13.60;99.90
18658;DHT22;9458;50.942;5.074;2023-05-29T02:29:26;13.50;99.90
18658;DHT22;9458;50.942;5.074;2023-05-29T02:32:00;13.40;99.90
18658;DHT22;9458;50.942;5.074;2023-05-29T02:34:30;13.40;99.90
18658;DHT22;9458;50.942;5.074;2023-05-29T02:36:58;13.30;99.90
18658;DHT22;9458;50.942;5.074;2023-05-29T02:39:25;13.30;99.90
18658;DHT22;9458;50.942;5.074;2023-05-29T02:41:52;13.30;99.90
18658;DHT22;9458;50.942;5.074;2023-05-29T02:44:20;13.10;99.90
18658;DHT22;9458;50.942;5.074;2023-05-29T02:46:48;13.10;99.90
18658;DHT22;9458;50.942;5.074;2023-05-29T02:49:16;13.00;99.90
18658;DHT22;9458;50.942;5.074;2023-05-29T02:51:45;13.00;99.90
18658;DHT22;9458;50.942;5.074;2023-05-29T02:54:12;12.90;99.90
18658;DHT22;9458;50.942;5.074;2023-05-29T02:56:39;12.90;99.90
18658;DHT22;9458;50.942;5.074;2023-05-29T02:59:07;12.90;99.90
18658;DHT22;9458;50.942;5.074;2023-05-29T03:01:34;12.90;99.90
18658;DHT22;9458;50.942;5.074;2023-05-29T03:04:07;12.90;99.90
18658;DHT22;9458;50.942;5.074;2023-05-29T03:06:35;12.80;99.90
18658;DHT22;9458;50.942;5.074;2023-05-29T03:09:04;12.70;99.90
18658;DHT22;9458;50.942;5.074;2023-05-29T03:11:32;12.70;99.90
18658;DHT22;9458;50.942;5.074;2023-05-29T03:14:01;12.70;99.90
18658;DHT22;9458;50.942;5.074;2023-05-29T03:16:28;12.70;99.90
18658;DHT22;9458;50.942;5.074;2023-05-29T03:18:55;12.50;99.90
18658;DHT22;9458;50.942;5.074;2023-05-29T03:21:23;12.50;99.90
18658;DHT22;9458;50.942;5.074;2023-05-29T03:23:50;12.40;99.90
18658;DHT22;9458;50.942;5.074;2023-05-29T03:26:20;12.50;99.90
18658;DHT22;9458;50.942;5.074;2023-05-29T03:28:47;12.50;99.90
18658;DHT22;9458;50.942;5.074;2023-05-29T03:31:14;12.50;99.90
18658;DHT22;9458;50.942;5.074;2023-05-29T03:33:41;12.50;99.90
18658;DHT22;9458;50.942;5.074;2023-05-29T03:36:08;12.40;99.90
18658;DHT22;9458;50.942;5.074;2023-05-29T03:38:36;12.30;99.90
18658;DHT22;9458;50.942;5.074;2023-05-29T03:41:03;12.30;99.90
18658;DHT22;9458;50.942;5.074;2023-05-29T03:43:32;12.30;99.90
18658;DHT22;9458;50.942;5.074;2023-05-29T03:45:59;12.30;99.90
18658;DHT22;9458;50.942;5.074;2023-05-29T03:48:27;12.40;99.90
18658;DHT22;9458;50.942;5.074;2023-05-29T03:50:54;12.40;99.90
18658;DHT22;9458;50.942;5.074;2023-05-29T03:53:21;12.30;99.90
18658;DHT22;9458;50.942;5.074;2023-05-29T03:55:48;12.30;99.90
18658;DHT22;9458;50.942;5.074;2023-05-29T03:58:19;12.40;99.90
18658;DHT22;9458;50.942;5.074;2023-05-29T04:00:47;12.60;99.90
18658;DHT22;9458;50.942;5.074;2023-05-29T04:03:14;12.80;99.90
18658;DHT22;9458;50.942;5.074;2023-05-29T04:05:41;13.00;99.90
18658;DHT22;9458;50.942;5.074;2023-05-29T04:08:09;13.10;99.90
18658;DHT22;9458;50.942;5.074;2023-05-29T04:10:36;13.20;99.90
18658;DHT22;9458;50.942;5.074;2023-05-29T04:13:04;13.20;99.90
18658;DHT22;9458;50.942;5.074;2023-05-29T04:15:32;13.30;99.90
18658;DHT22;9458;50.942;5.074;2023-05-29T04:18:01;13.60;99.90
18658;DHT22;9458;50.942;5.074;2023-05-29T04:20:29;13.70;99.90
18658;DHT22;9458;50.942;5.074;2023-05-29T04:22:56;14.10;99.90
18658;DHT22;9458;50.942;5.074;2023-05-29T04:25:23;14.30;99.90
18658;DHT22;9458;50.942;5.074;2023-05-29T04:27:50;14.30;99.90
18658;DHT22;9458;50.942;5.074;2023-05-29T04:30:17;14.80;99.90
18658;DHT22;9458;50.942;5.074;2023-05-29T04:32:47;15.40;99.90
18658;DHT22;9458;50.942;5.074;2023-05-29T04:35:16;15.80;99.90
18658;DHT22;9458;50.942;5.074;2023-05-29T04:37:42;15.90;99.90
18658;DHT22;9458;50.942;5.074;2023-05-29T04:40:12;15.90;99.90
18658;DHT22;9458;50.942;5.074;2023-05-29T04:42:43;16.00;99.90
18658;DHT22;9458;50.942;5.074;2023-05-29T04:45:11;16.10;99.90
18658;DHT22;9458;50.942;5.074;2023-05-29T04:47:40;16.60;99.90
18658;DHT22;9458;50.942;5.074;2023-05-29T04:50:10;16.70;99.90
18658;DHT22;9458;50.942;5.074;2023-05-29T04:52:39;16.90;99.90
18658;DHT22;9458;50.942;5.074;2023-05-29T04:55:07;17.10;99.90
18658;DHT22;9458;50.942;5.074;2023-05-29T04:57:34;17.20;99.90
18658;DHT22;9458;50.942;5.074;2023-05-29T05:00:02;17.30;99.90
18658;DHT22;9458;50.942;5.074;2023-05-29T05:02:30;17.90;99.90
18658;DHT22;9458;50.942;5.074;2023-05-29T05:04:57;18.30;99.90
18658;DHT22;9458;50.942;5.074;2023-05-29T05:07:24;18.70;99.90
18658;DHT22;9458;50.942;5.074;2023-05-29T05:09:53;19.00;99.90
18658;DHT22;9458;50.942;5.074;2023-05-29T05:12:20;18.80;99.90
18658;DHT22;9458;50.942;5.074;2023-05-29T05:14:48;19.50;99.90
18658;DHT22;9458;50.942;5.074;2023-05-29T05:17:15;19.30;99.40
18658;DHT22;9458;50.942;5.074;2023-05-29T05:19:42;19.70;98.90
18658;DHT22;9458;50.942;5.074;2023-05-29T05:22:10;20.20;98.40
18658;DHT22;9458;50.942;5.074;2023-05-29T05:24:37;20.60;97.70
18658;DHT22;9458;50.942;5.074;2023-05-29T05:27:06;20.30;97.10
18658;DHT22;9458;50.942;5.074;2023-05-29T05:29:33;20.50;96.90
18658;DHT22;9458;50.942;5.074;2023-05-29T05:32:00;20.90;96.80
18658;DHT22;9458;50.942;5.074;2023-05-29T05:34:27;21.60;95.70
18658;DHT22;9458;50.942;5.074;2023-05-29T05:36:55;22.10;94.70
18658;DHT22;9458;50.942;5.074;2023-05-29T05:39:22;21.80;94.00
18658;DHT22;9458;50.942;5.074;2023-05-29T05:41:49;21.60;94.20
18658;DHT22;9458;50.942;5.074;2023-05-29T05:44:17;21.60;93.50
18658;DHT22;9458;50.942;5.074;2023-05-29T05:46:45;22.30;93.80
18658;DHT22;9458;50.942;5.074;2023-05-29T05:49:13;21.90;92.80
18658;DHT22;9458;50.942;5.074;2023-05-29T05:51:41;22.50;92.90
18658;DHT22;9458;50.942;5.074;2023-05-29T05:54:08;23.20;91.90
18658;DHT22;9458;50.942;5.074;2023-05-29T05:56:36;23.00;91.70
18658;DHT22;9458;50.942;5.074;2023-05-29T05:59:03;23.70;91.20
18658;DHT22;9458;50.942;5.074;2023-05-29T06:01:33;23.80;90.70
18658;DHT22;9458;50.942;5.074;2023-05-29T06:04:03;23.60;90.40
18658;DHT22;9458;50.942;5.074;2023-05-29T06:06:32;22.90;90.70
18658;DHT22;9458;50.942;5.074;2023-05-29T06:09:05;23.00;90.90
18658;DHT22;9458;50.942;5.074;2023-05-29T06:11:32;22.90;90.40
18658;DHT22;9458;50.942;5.074;2023-05-29T06:13:59;22.90;90.30
18658;DHT22;9458;50.942;5.074;2023-05-29T06:16:27;22.90;90.50
18658;DHT22;9458;50.942;5.074;2023-05-29T06:18:55;22.40;90.70
18658;DHT22;9458;50.942;5.074;2023-05-29T06:21:22;23.20;90.60
18658;DHT22;9458;50.942;5.074;2023-05-29T06:23:50;24.00;89.20
18658;DHT22;9458;50.942;5.074;2023-05-29T06:26:17;24.70;88.70
18658;DHT22;9458;50.942;5.074;2023-05-29T06:28:44;25.40;86.30
18658;DHT22;9458;50.942;5.074;2023-05-29T06:31:11;24.70;84.80
18658;DHT22;9458;50.942;5.074;2023-05-29T06:33:38;24.20;86.20
18658;DHT22;9458;50.942;5.074;2023-05-29T06:36:07;24.90;86.10
18658;DHT22;9458;50.942;5.074;2023-05-29T06:38:35;24.60;86.00
18658;DHT22;9458;50.942;5.074;2023-05-29T06:41:02;25.10;85.10
18658;DHT22;9458;50.942;5.074;2023-05-29T06:43:29;25.90;83.10
18658;DHT22;9458;50.942;5.074;2023-05-29T06:45:56;26.60;81.40
18658;DHT22;9458;50.942;5.074;2023-05-29T06:48:24;26.00;81.20
18658;DHT22;9458;50.942;5.074;2023-05-29T06:50:50;26.30;80.70
18658;DHT22;9458;50.942;5.074;2023-05-29T06:53:19;26.90;80.30
18658;DHT22;9458;50.942;5.074;2023-05-29T06:55:46;26.80;79.00
18658;DHT22;9458;50.942;5.074;2023-05-29T06:58:13;27.20;79.60
18658;DHT22;9458;50.942;5.074;2023-05-29T07:00:40;26.60;78.30
18658;DHT22;9458;50.942;5.074;2023-05-29T07:03:08;25.90;79.10
18658;DHT22;9458;50.942;5.074;2023-05-29T07:05:35;26.30;79.30
18658;DHT22;9458;50.942;5.074;2023-05-29T07:08:03;26.70;77.10
18658;DHT22;9458;50.942;5.074;2023-05-29T07:10:32;26.40;77.00
18658;DHT22;9458;50.942;5.074;2023-05-29T07:12:59;25.70;78.10
18658;DHT22;9458;50.942;5.074;2023-05-29T07:15:26;26.40;77.00
18658;DHT22;9458;50.942;5.074;2023-05-29T07:17:54;25.80;78.90
18658;DHT22;9458;50.942;5.074;2023-05-29T07:20:20;26.20;77.80
18658;DHT22;9458;50.942;5.074;2023-05-29T07:22:48;26.00;79.10
18658;DHT22;9458;50.942;5.074;2023-05-29T07:25:15;26.00;78.10
18658;DHT22;9458;50.942;5.074;2023-05-29T07:27:43;26.70;77.30
18658;DHT22;9458;50.942;5.074;2023-05-29T07:30:11;26.90;77.20
18658;DHT22;9458;50.942;5.074;2023-05-29T07:32:42;27.40;76.70
18658;DHT22;9458;50.942;5.074;2023-05-29T07:35:08;28.40;75.00
18658;DHT22;9458;50.942;5.074;2023-05-29T07:37:36;28.80;72.70
18658;DHT22;9458;50.942;5.074;2023-05-29T07:40:03;28.60;73.60
18658;DHT22;9458;50.942;5.074;2023-05-29T07:42:31;27.80;73.00
18658;DHT22;9458;50.942;5.074;2023-05-29T07:44:59;27.50;74.60
18658;DHT22;9458;50.942;5.074;2023-05-29T07:47:27;27.70;74.10
18658;DHT22;9458;50.942;5.074;2023-05-29T07:49:54;28.40;72.80
18658;DHT22;9458;50.942;5.074;2023-05-29T07:52:21;27.90;73.50
18658;DHT22;9458;50.942;5.074;2023-05-29T07:54:48;28.10;73.90
18658;DHT22;9458;50.942;5.074;2023-05-29T07:57:15;28.30;73.70
18658;DHT22;9458;50.942;5.074;2023-05-29T07:59:42;27.70;72.90
18658;DHT22;9458;50.942;5.074;2023-05-29T08:02:11;27.90;73.10
18658;DHT22;9458;50.942;5.074;2023-05-29T08:04:38;27.70;72.90
18658;DHT22;9458;50.942;5.074;2023-05-29T08:07:05;27.70;73.50
18658;DHT22;9458;50.942;5.074;2023-05-29T08:09:32;28.00;72.50
18658;DHT22;9458;50.942;5.074;2023-05-29T08:11:59;27.40;73.00
18658;DHT22;9458;50.942;5.074;2023-05-29T08:14:26;28.20;72.00
18658;DHT22;9458;50.942;5.074;2023-05-29T08:16:54;28.70;72.40
18658;DHT22;9458;50.942;5.074;2023-05-29T08:19:22;28.90;70.10
18658;DHT22;9458;50.942;5.074;2023-05-29T08:21:49;28.40;71.30
18658;DHT22;9458;50.942;5.074;2023-05-29T08:24:16;27.50;71.40
18658;DHT22;9458;50.942;5.074;2023-05-29T08:26:45;27.30;72.60
18658;DHT22;9458;50.942;5.074;2023-05-29T08:29:12;26.30;73.50
18658;DHT22;9458;50.942;5.074;2023-05-29T08:31:40;24.70;76.30
18658;DHT22;9458;50.942;5.074;2023-05-29T08:34:07;24.40;77.20
18658;DHT22;9458;50.942;5.074;2023-05-29T08:36:37;24.40;78.70
18658;DHT22;9458;50.942;5.074;2023-05-29T08:39:06;24.20;78.70
18658;DHT22;9458;50.942;5.074;2023-05-29T08:41:34;24.40;79.80
18658;DHT22;9458;50.942;5.074;2023-05-29T08:44:07;24.40;79.20
18658;DHT22;9458;50.942;5.074;2023-05-29T08:46:34;24.10;78.70
18658;DHT22;9458;50.942;5.074;2023-05-29T08:49:03;23.50;80.30
18658;DHT22;9458;50.942;5.074;2023-05-29T08:51:31;23.50;83.10
18658;DHT22;9458;50.942;5.074;2023-05-29T08:54:02;23.70;80.70
18658;DHT22;9458;50.942;5.074;2023-05-29T08:56:29;23.80;82.90
18658;DHT22;9458;50.942;5.074;2023-05-29T08:58:57;24.20;81.70
18658;DHT22;9458;50.942;5.074;2023-05-29T09:01:25;23.70;82.00
18658;DHT22;9458;50.942;5.074;2023-05-29T09:03:52;23.50;81.50
18658;DHT22;9458;50.942;5.074;2023-05-29T09:06:21;23.10;81.60
18658;DHT22;9458;50.942;5.074;2023-05-29T09:08:49;22.70;82.60
18658;DHT22;9458;50.942;5.074;2023-05-29T09:11:19;22.90;85.30
18658;DHT22;9458;50.942;5.074;2023-05-29T09:13:47;23.20;84.50
18658;DHT22;9458;50.942;5.074;2023-05-29T09:16:15;23.40;85.00
18658;DHT22;9458;50.942;5.074;2023-05-29T09:18:42;23.40;82.50
18658;DHT22;9458;50.942;5.074;2023-05-29T09:21:15;23.20;83.00
18658;DHT22;9458;50.942;5.074;2023-05-29T09:23:52;23.30;85.00
18658;DHT22;9458;50.942;5.074;2023-05-29T09:26:20;23.50;84.70
18658;DHT22;9458;50.942;5.074;2023-05-29T09:28:48;23.00;83.90
18658;DHT22;9458;50.942;5.074;2023-05-29T09:31:16;23.20;82.50
18658;DHT22;9458;50.942;5.074;2023-05-29T09:33:48;23.40;82.80
18658;DHT22;9458;50.942;5.074;2023-05-29T09:36:21;23.20;81.90
18658;DHT22;9458;50.942;5.074;2023-05-29T09:38:49;22.80;84.10
18658;DHT22;9458;50.942;5.074;2023-05-29T09:41:22;22.70;86.10
18658;DHT22;9458;50.942;5.074;2023-05-29T09:43:49;22.80;85.40
18658;DHT22;9458;50.942;5.074;2023-05-29T09:46:16;23.10;83.10
18658;DHT22;9458;50.942;5.074;2023-05-29T09:48:44;23.30;85.30
18658;DHT22;9458;50.942;5.074;2023-05-29T09:51:20;23.40;85.10
18658;DHT22;9458;50.942;5.074;2023-05-29T09:53:47;23.50;83.90
18658;DHT22;9458;50.942;5.074;2023-05-29T09:56:16;23.40;83.50
18658;DHT22;9458;50.942;5.074;2023-05-29T09:58:46;23.00;83.60
18658;DHT22;9458;50.942;5.074;2023-05-29T10:01:14;22.80;84.10
18658;DHT22;9458;50.942;5.074;2023-05-29T10:03:52;22.90;85.60
18658;DHT22;9458;50.942;5.074;2023-05-29T10:06:24;22.40;85.00
18658;DHT22;9458;50.942;5.074;2023-05-29T10:08:51;22.30;87.20
18658;DHT22;9458;50.942;5.074;2023-05-29T10:11:22;22.30;85.90
18658;DHT22;9458;50.942;5.074;2023-05-29T10:13:53;22.30;85.00
18658;DHT22;9458;50.942;5.074;2023-05-29T10:16:22;22.20;85.10
18658;DHT22;9458;50.942;5.074;2023-05-29T10:18:50;22.10;85.80
18658;DHT22;9458;50.942;5.074;2023-05-29T10:21:20;22.00;86.30
18658;DHT22;9458;50.942;5.074;2023-05-29T10:23:49;22.00;85.20
18658;DHT22;9458;50.942;5.074;2023-05-29T10:26:19;22.10;86.90
18658;DHT22;9458;50.942;5.074;2023-05-29T10:28:52;22.30;88.30
18658;DHT22;9458;50.942;5.074;2023-05-29T10:31:24;22.40;85.80
18658;DHT22;9458;50.942;5.074;2023-05-29T10:33:58;22.50;84.90
18658;DHT22;9458;50.942;5.074;2023-05-29T10:36:28;22.70;85.90
18658;DHT22;9458;50.942;5.074;2023-05-29T10:38:57;22.20;84.10
18658;DHT22;9458;50.942;5.074;2023-05-29T10:41:28;22.00;85.70
18658;DHT22;9458;50.942;5.074;2023-05-29T10:43:55;21.70;86.00
18658;DHT22;9458;50.942;5.074;2023-05-29T10:49:07;22.00;89.50
18658;DHT22;9458;50.942;5.074;2023-05-29T10:51:42;22.20;86.00
18658;DHT22;9458;50.942;5.074;2023-05-29T10:54:09;21.90;85.00
18658;DHT22;9458;50.942;5.074;2023-05-29T10:56:36;21.80;85.10
18658;DHT22;9458;50.942;5.074;2023-05-29T10:59:04;22.00;85.30
18658;DHT22;9458;50.942;5.074;2023-05-29T11:01:34;21.90;85.30
18658;DHT22;9458;50.942;5.074;2023-05-29T11:06:53;22.30;86.90
18658;DHT22;9458;50.942;5.074;2023-05-29T11:09:27;22.40;86.40
18658;DHT22;9458;50.942;5.074;2023-05-29T11:12:11;21.90;84.60
18658;DHT22;9458;50.942;5.074;2023-05-29T11:14:44;21.80;87.40
18658;DHT22;9458;50.942;5.074;2023-05-29T11:17:28;22.00;85.70
18658;DHT22;9458;50.942;5.074;2023-05-29T11:19:56;21.90;87.90
18658;DHT22;9458;50.942;5.074;2023-05-29T11:22:26;21.50;86.60
18658;DHT22;9458;50.942;5.074;2023-05-29T11:24:54;21.40;86.80
18658;DHT22;9458;50.942;5.074;2023-05-29T11:27:23;21.60;87.20
18658;DHT22;9458;50.942;5.074;2023-05-29T11:29:50;21.60;90.00
18658;DHT22;9458;50.942;5.074;2023-05-29T11:32:20;21.80;87.00
18658;DHT22;9458;50.942;5.074;2023-05-29T11:34:48;21.80;87.10
18658;DHT22;9458;50.942;5.074;2023-05-29T11:37:16;21.60;87.50
18658;DHT22;9458;50.942;5.074;2023-05-29T11:39:46;21.70;87.80
18658;DHT22;9458;50.942;5.074;2023-05-29T11:42:14;21.70;88.00
18658;DHT22;9458;50.942;5.074;2023-05-29T11:44:42;21.60;88.40
18658;DHT22;9458;50.942;5.074;2023-05-29T11:47:10;21.50;87.80
18658;DHT22;9458;50.942;5.074;2023-05-29T11:49:37;21.80;89.50
18658;DHT22;9458;50.942;5.074;2023-05-29T11:52:08;21.70;86.70
18658;DHT22;9458;50.942;5.074;2023-05-29T11:54:35;22.00;89.20
18658;DHT22;9458;50.942;5.074;2023-05-29T11:57:04;22.20;87.70
18658;DHT22;9458;50.942;5.074;2023-05-29T11:59:32;22.20;90.00
18658;DHT22;9458;50.942;5.074;2023-05-29T12:01:59;22.00;88.80
18658;DHT22;9458;50.942;5.074;2023-05-29T12:04:28;22.00;88.50
18658;DHT22;9458;50.942;5.074;2023-05-29T12:06:56;21.90;90.00
18658;DHT22;9458;50.942;5.074;2023-05-29T12:09:24;22.00;90.00
18658;DHT22;9458;50.942;5.074;2023-05-29T12:11:52;22.10;87.40
18658;DHT22;9458;50.942;5.074;2023-05-29T12:14:21;22.30;86.50
18658;DHT22;9458;50.942;5.074;2023-05-29T12:16:48;21.80;86.80
18658;DHT22;9458;50.942;5.074;2023-05-29T12:19:17;22.00;89.10
18658;DHT22;9458;50.942;5.074;2023-05-29T12:21:45;22.00;87.60
18658;DHT22;9458;50.942;5.074;2023-05-29T12:24:18;22.20;89.50
18658;DHT22;9458;50.942;5.074;2023-05-29T12:26:45;22.30;87.30
18658;DHT22;9458;50.942;5.074;2023-05-29T12:29:13;22.40;88.20
18658;DHT22;9458;50.942;5.074;2023-05-29T12:31:42;22.50;86.90
18658;DHT22;9458;50.942;5.074;2023-05-29T12:34:10;22.70;85.30
18658;DHT22;9458;50.942;5.074;2023-05-29T12:36:39;22.80;86.80
18658;DHT22;9458;50.942;5.074;2023-05-29T12:39:07;22.10;85.50
18658;DHT22;9458;50.942;5.074;2023-05-29T12:41:36;22.30;88.40
18658;DHT22;9458;50.942;5.074;2023-05-29T12:44:03;22.20;86.30
18658;DHT22;9458;50.942;5.074;2023-05-29T12:46:34;22.20;88.40
18658;DHT22;9458;50.942;5.074;2023-05-29T12:49:12;22.20;84.20
18658;DHT22;9458;50.942;5.074;2023-05-29T12:51:40;22.30;88.10
18658;DHT22;9458;50.942;5.074;2023-05-29T12:54:09;22.20;86.30
18658;DHT22;9458;50.942;5.074;2023-05-29T12:56:37;22.20;85.30
18658;DHT22;9458;50.942;5.074;2023-05-29T12:59:05;22.30;87.30
18658;DHT22;9458;50.942;5.074;2023-05-29T13:01:33;22.30;85.90
18658;DHT22;9458;50.942;5.074;2023-05-29T13:04:00;22.10;85.90
18658;DHT22;9458;50.942;5.074;2023-05-29T13:06:29;22.10;86.50
18658;DHT22;9458;50.942;5.074;2023-05-29T13:08:57;22.30;85.50
18658;DHT22;9458;50.942;5.074;2023-05-29T13:11:24;22.00;86.00
18658;DHT22;9458;50.942;5.074;2023-05-29T13:13:51;22.10;85.40
18658;DHT22;9458;50.942;5.074;2023-05-29T13:16:18;22.10;86.70
18658;DHT22;9458;50.942;5.074;2023-05-29T13:18:45;22.10;85.90
18658;DHT22;9458;50.942;5.074;2023-05-29T13:21:13;22.10;85.60
18658;DHT22;9458;50.942;5.074;2023-05-29T13:23:42;22.20;86.50
18658;DHT22;9458;50.942;5.074;2023-05-29T13:26:09;22.20;84.70
18658;DHT22;9458;50.942;5.074;2023-05-29T13:28:36;22.10;85.20
18658;DHT22;9458;50.942;5.074;2023-05-29T13:31:04;21.90;84.90
18658;DHT22;9458;50.942;5.074;2023-05-29T13:33:31;22.10;85.60
18658;DHT22;9458;50.942;5.074;2023-05-29T13:35:59;22.20;87.50
18658;DHT22;9458;50.942;5.074;2023-05-29T13:38:26;22.30;86.50
18658;DHT22;9458;50.942;5.074;2023-05-29T13:40:55;22.30;88.30
18658;DHT22;9458;50.942;5.074;2023-05-29T13:43:22;22.30;85.10
18658;DHT22;9458;50.942;5.074;2023-05-29T13:45:49;22.20;86.20
18658;DHT22;9458;50.942;5.074;2023-05-29T13:48:17;22.00;85.80
18658;DHT22;9458;50.942;5.074;2023-05-29T13:50:44;22.00;85.80
18658;DHT22;9458;50.942;5.074;2023-05-29T13:53:10;22.10;86.80
18658;DHT22;9458;50.942;5.074;2023-05-29T13:55:38;22.00;86.40
18658;DHT22;9458;50.942;5.074;2023-05-29T13:58:07;21.80;86.30
18658;DHT22;9458;50.942;5.074;2023-05-29T14:00:35;21.90;85.80
18658;DHT22;9458;50.942;5.074;2023-05-29T14:03:09;21.90;85.60
18658;DHT22;9458;50.942;5.074;2023-05-29T14:05:36;22.10;87.90
18658;DHT22;9458;50.942;5.074;2023-05-29T14:08:03;22.20;86.20
18658;DHT22;9458;50.942;5.074;2023-05-29T14:10:30;22.10;85.60
18658;DHT22;9458;50.942;5.074;2023-05-29T14:12:58;22.00;86.40
18658;DHT22;9458;50.942;5.074;2023-05-29T14:15:27;22.10;83.90
18658;DHT22;9458;50.942;5.074;2023-05-29T14:17:55;22.10;85.80
18658;DHT22;9458;50.942;5.074;2023-05-29T14:20:23;21.90;85.60
18658;DHT22;9458;50.942;5.074;2023-05-29T14:22:50;22.20;86.40
18658;DHT22;9458;50.942;5.074;2023-05-29T14:25:17;22.30;86.20
18658;DHT22;9458;50.942;5.074;2023-05-29T14:27:44;22.20;86.40
18658;DHT22;9458;50.942;5.074;2023-05-29T14:30:12;22.10;84.90
18658;DHT22;9458;50.942;5.074;2023-05-29T14:32:41;22.10;84.40
18658;DHT22;9458;50.942;5.074;2023-05-29T14:35:09;21.90;85.80
18658;DHT22;9458;50.942;5.074;2023-05-29T14:37:37;22.00;88.50
18658;DHT22;9458;50.942;5.074;2023-05-29T14:40:05;22.20;86.40
18658;DHT22;9458;50.942;5.074;2023-05-29T14:42:32;21.90;83.50
18658;DHT22;9458;50.942;5.074;2023-05-29T14:44:59;21.90;87.40
18658;DHT22;9458;50.942;5.074;2023-05-29T14:47:26;21.90;84.70
18658;DHT22;9458;50.942;5.074;2023-05-29T14:49:55;22.00;85.80
18658;DHT22;9458;50.942;5.074;2023-05-29T14:52:23;22.00;85.60
18658;DHT22;9458;50.942;5.074;2023-05-29T14:54:50;22.00;86.20
18658;DHT22;9458;50.942;5.074;2023-05-29T14:57:17;22.30;87.40
18658;DHT22;9458;50.942;5.074;2023-05-29T14:59:44;22.10;83.30
18658;DHT22;9458;50.942;5.074;2023-05-29T15:02:12;22.00;85.90
18658;DHT22;9458;50.942;5.074;2023-05-29T15:04:39;22.10;85.80
18658;DHT22;9458;50.942;5.074;2023-05-29T15:07:07;22.10;85.90
18658;DHT22;9458;50.942;5.074;2023-05-29T15:09:34;22.00;86.30
18658;DHT22;9458;50.942;5.074;2023-05-29T15:12:02;22.10;85.20
18658;DHT22;9458;50.942;5.074;2023-05-29T15:14:30;22.00;85.00
18658;DHT22;9458;50.942;5.074;2023-05-29T15:16:58;22.00;85.50
18658;DHT22;9458;50.942;5.074;2023-05-29T15:19:25;22.00;85.40
18658;DHT22;9458;50.942;5.074;2023-05-29T15:21:53;22.00;84.30
18658;DHT22;9458;50.942;5.074;2023-05-29T15:24:21;21.80;84.00
18658;DHT22;9458;50.942;5.074;2023-05-29T15:26:49;21.80;84.60
18658;DHT22;9458;50.942;5.074;2023-05-29T15:29:16;21.80;82.90
18658;DHT22;9458;50.942;5.074;2023-05-29T15:31:43;21.80;82.60
18658;DHT22;9458;50.942;5.074;2023-05-29T15:34:10;21.80;83.00
18658;DHT22;9458;50.942;5.074;2023-05-29T15:36:38;21.70;83.80
18658;DHT22;9458;50.942;5.074;2023-05-29T15:39:06;21.60;84.00
18658;DHT22;9458;50.942;5.074;2023-05-29T15:41:35;21.70;84.90
18658;DHT22;9458;50.942;5.074;2023-05-29T15:44:02;21.40;85.50
18658;DHT22;9458;50.942;5.074;2023-05-29T15:46:29;21.40;85.70
18658;DHT22;9458;50.942;5.074;2023-05-29T15:48:57;21.50;85.20
18658;DHT22;9458;50.942;5.074;2023-05-29T15:51:24;21.30;83.70
18658;DHT22;9458;50.942;5.074;2023-05-29T15:53:52;21.30;85.40
18658;DHT22;9458;50.942;5.074;2023-05-29T15:56:19;21.30;83.30
18658;DHT22;9458;50.942;5.074;2023-05-29T15:58:53;21.40;82.90